Startpagina
METAR-TAF:

METAR-TAF

Vliegvelden :

Melun, Frankrijk

breedte: 48-37N, lengte: 002-41E, hoogte: 95 m

Actueel weer

Dit bericht is 41 minuten geleden gemaakt, om 19:00 UTC
Wind 2 kt uit het noordoosten
Temperatuur 0°C
Vochtigheid 93%
Druk 1022 hPa
Zicht: 3400 m
nevel

METAR: LFPM 241900Z AUTO 05002KT 3400 BR ////// 00/M01 Q1022

Tijdstip: 20:41 (19:41 UTC)


TAF: ontbreekt

Waarnemingen en weersverwachtingen van meer dan 4000 vliegvelden (METAR en TAF).

De beschikbare stations zijn de gele en rode punten op de kaart.

Ga met uw muis naar het station om de naam te zien.

Klik dan om waarnemingen en weersverwachtingen te zien.

kaart wijzigen: klik op de groene knoppen met een zwart kruis om in te zoomen, op de groene knop met een streepje om uit te zoomen of op de groene pijlen voor aangrenzende kaarten.


METAR-TAF: